createdAt,value
2022-12-04T00:04:20.425Z,61.40
2022-12-04T00:09:20.315Z,60.40
2022-12-04T00:14:20.247Z,68.69
2022-12-04T00:19:20.178Z,57.29
2022-12-04T00:24:20.122Z,56.29
2022-12-04T00:29:20.050Z,59.40
2022-12-04T00:34:20.043Z,63.20
2022-12-04T00:39:19.982Z,63.40
2022-12-04T00:44:19.867Z,56.00
2022-12-04T00:49:19.792Z,60.40
2022-12-04T00:54:19.736Z,64.09
2022-12-04T00:59:19.666Z,57.79
2022-12-04T01:04:19.614Z,58.29
2022-12-04T01:09:19.539Z,58.59
2022-12-04T01:14:19.481Z,55.09
2022-12-04T01:19:19.417Z,57.40
2022-12-04T01:24:19.354Z,62.20
2022-12-04T01:29:19.283Z,69.30
2022-12-04T01:34:19.236Z,57.40
2022-12-04T01:39:19.154Z,58.59
2022-12-04T01:44:19.096Z,67.50
2022-12-04T01:49:19.024Z,61.50
2022-12-04T01:54:18.969Z,58.59
2022-12-04T01:59:18.900Z,59.20
2022-12-04T02:04:18.842Z,56.59
2022-12-04T02:09:24.647Z,61.90
2022-12-04T02:14:18.713Z,64.69
2022-12-04T02:19:18.643Z,63.70
2022-12-04T02:24:18.585Z,53.29
2022-12-04T02:29:18.514Z,54.79
2022-12-04T02:34:18.455Z,59.40
2022-12-04T02:39:18.384Z,58.29
2022-12-04T02:44:18.328Z,56.59
2022-12-04T02:49:18.521Z,59.90
2022-12-04T02:54:18.201Z,54.70
2022-12-04T02:59:18.136Z,50.29
2022-12-04T03:04:18.076Z,55.70
2022-12-04T03:09:18.002Z,58.09
2022-12-04T03:14:17.947Z,58.40
2022-12-04T03:19:17.885Z,59.20
2022-12-04T03:24:17.816Z,66.69
2022-12-04T03:29:17.746Z,54.29
2022-12-04T03:34:17.688Z,74.19
2022-12-04T03:39:17.615Z,55.00
2022-12-04T03:44:17.559Z,56.90
2022-12-04T03:49:17.488Z,62.20
2022-12-04T03:54:17.433Z,57.40
2022-12-04T03:59:17.363Z,55.40
2022-12-04T04:04:17.302Z,49.29
2022-12-04T04:09:17.231Z,59.00
2022-12-04T04:14:17.176Z,58.70
2022-12-04T04:19:17.105Z,57.00
2022-12-04T04:24:17.040Z,61.79
2022-12-04T04:29:16.975Z,65.69
2022-12-04T04:34:16.908Z,61.29
2022-12-04T04:39:16.847Z,64.90
2022-12-04T04:44:16.782Z,67.19
2022-12-04T04:49:16.718Z,63.59
2022-12-04T04:54:16.662Z,65.09
2022-12-04T04:59:16.581Z,67.50
2022-12-04T05:04:16.522Z,60.09
2022-12-04T05:09:16.454Z,68.19
2022-12-04T05:14:16.396Z,70.90
2022-12-04T05:19:16.325Z,73.40
2022-12-04T05:24:16.271Z,77.00
2022-12-04T05:29:16.201Z,62.50
2022-12-04T05:34:16.143Z,83.09
2022-12-04T05:39:16.069Z,73.00
2022-12-04T05:44:16.013Z,74.59
2022-12-04T05:49:15.941Z,74.69
2022-12-04T05:54:15.886Z,74.50
2022-12-04T05:59:15.813Z,85.69
2022-12-04T06:04:15.757Z,80.80
2022-12-04T06:09:15.686Z,77.50
2022-12-04T06:14:15.628Z,75.19
2022-12-04T06:19:15.567Z,75.30
2022-12-04T06:24:15.501Z,72.80
2022-12-04T06:29:15.439Z,71.80
2022-12-04T06:34:15.373Z,82.30
2022-12-04T06:39:18.641Z,80.30
2022-12-04T06:44:15.245Z,74.30
2022-12-04T06:49:15.185Z,77.40
2022-12-04T06:54:15.117Z,80.40
2022-12-04T06:59:15.045Z,81.09
2022-12-04T07:04:14.990Z,71.90
2022-12-04T07:09:14.922Z,70.09
2022-12-04T07:14:14.871Z,78.50
2022-12-04T07:19:14.792Z,76.50
2022-12-04T07:24:14.733Z,73.50
2022-12-04T07:29:14.666Z,66.69
2022-12-04T07:34:14.607Z,77.69
2022-12-04T07:39:14.545Z,76.09
2022-12-04T07:44:14.479Z,68.19
2022-12-04T07:49:14.418Z,73.80
2022-12-04T07:54:14.352Z,71.30
2022-12-04T07:59:14.290Z,77.90
2022-12-04T08:04:14.259Z,73.00
2022-12-04T08:09:14.165Z,74.00
2022-12-04T08:14:14.109Z,74.19
2022-12-04T08:19:14.024Z,83.09
2022-12-04T08:24:13.978Z,79.59
2022-12-04T08:29:13.915Z,72.69
2022-12-04T08:34:13.852Z,77.00
2022-12-04T08:39:13.773Z,79.00
2022-12-04T08:44:13.723Z,83.40
2022-12-04T08:49:13.642Z,92.09
2022-12-04T08:54:13.587Z,88.09
2022-12-04T08:59:13.517Z,99.19
2022-12-04T09:04:13.517Z,95.80
2022-12-04T09:09:13.390Z,84.69
2022-12-04T09:14:13.334Z,83.80
2022-12-04T09:19:13.262Z,89.80
2022-12-04T09:24:13.204Z,85.19
2022-12-04T09:29:13.141Z,89.40
2022-12-04T09:34:13.088Z,90.50
2022-12-04T09:39:13.006Z,89.90
2022-12-04T09:44:13.061Z,87.00
2022-12-04T09:49:12.877Z,85.59
2022-12-04T09:54:12.832Z,99.59
2022-12-04T09:59:12.752Z,85.69
2022-12-04T10:04:12.775Z,79.50
2022-12-04T10:09:12.622Z,89.69
2022-12-04T10:14:12.567Z,89.59
2022-12-04T10:19:12.496Z,98.40
2022-12-04T10:24:12.436Z,100.90
2022-12-04T10:29:12.365Z,86.19
2022-12-04T10:34:12.309Z,95.30
2022-12-04T10:39:12.254Z,104.19
2022-12-04T10:44:12.183Z,92.69
2022-12-04T10:49:12.110Z,108.09
2022-12-04T10:54:12.064Z,93.00
2022-12-04T10:59:11.984Z,96.09
2022-12-04T11:04:11.937Z,91.19
2022-12-04T11:09:11.856Z,87.59
2022-12-04T11:14:11.808Z,83.80
2022-12-04T11:19:11.727Z,85.40
2022-12-04T11:24:11.681Z,104.80
2022-12-04T11:29:11.600Z,98.59
2022-12-04T11:34:11.544Z,89.00
2022-12-04T11:39:11.472Z,90.59
2022-12-04T11:44:11.418Z,97.59
2022-12-04T11:49:11.347Z,98.90
2022-12-04T11:54:11.290Z,93.09
2022-12-04T11:59:11.219Z,99.09
2022-12-04T12:04:11.163Z,109.59
2022-12-04T12:09:11.094Z,94.69
2022-12-04T12:14:11.049Z,99.50
2022-12-04T12:19:10.967Z,92.80
2022-12-04T12:24:10.921Z,97.50
2022-12-04T12:29:10.845Z,87.30
2022-12-04T12:34:10.801Z,100.50
2022-12-04T12:39:10.712Z,107.80
2022-12-04T12:44:10.666Z,93.69
2022-12-04T12:49:10.584Z,103.69
2022-12-04T12:54:10.529Z,94.80
2022-12-04T12:59:10.458Z,98.00
2022-12-04T13:04:10.402Z,96.40
2022-12-04T13:09:10.332Z,85.80
2022-12-04T13:14:10.276Z,102.09
2022-12-04T13:19:10.205Z,95.59
2022-12-04T13:24:10.146Z,102.50
2022-12-04T13:29:10.077Z,94.50
2022-12-04T13:34:10.030Z,80.59
2022-12-04T13:39:09.948Z,85.00
2022-12-04T13:44:09.892Z,99.09
2022-12-04T13:49:09.826Z,85.80
2022-12-04T13:54:09.860Z,98.09
2022-12-04T13:59:09.692Z,94.80
2022-12-04T14:04:09.636Z,90.09
2022-12-04T14:09:09.568Z,101.59
2022-12-04T14:14:09.514Z,89.19
2022-12-04T14:19:09.449Z,98.30
2022-12-04T14:24:09.383Z,92.59
2022-12-04T14:29:09.322Z,90.59
2022-12-04T14:34:09.255Z,107.00
2022-12-04T14:39:09.197Z,90.59
2022-12-04T14:44:09.128Z,85.09
2022-12-04T14:49:09.070Z,86.40
2022-12-04T14:54:09.004Z,103.69
2022-12-04T14:59:08.933Z,96.50
2022-12-04T15:04:08.918Z,85.59
2022-12-04T15:09:08.809Z,97.09
2022-12-04T15:14:08.752Z,91.59
2022-12-04T15:19:08.681Z,99.80
2022-12-04T15:24:08.630Z,99.80
2022-12-04T15:29:08.553Z,97.90
2022-12-04T15:34:08.498Z,93.30
2022-12-04T15:39:08.437Z,92.90
2022-12-04T15:44:08.372Z,97.40
2022-12-04T15:49:08.312Z,96.50
2022-12-04T15:54:08.246Z,82.59
2022-12-04T15:59:08.186Z,91.30
2022-12-04T16:04:08.120Z,95.09
2022-12-04T16:09:08.063Z,95.59
2022-12-04T16:14:07.992Z,91.90
2022-12-04T16:19:07.935Z,95.40
2022-12-04T16:24:07.871Z,83.30
2022-12-04T16:29:07.818Z,95.59
2022-12-04T16:34:07.746Z,111.00
2022-12-04T16:39:07.689Z,102.59
2022-12-04T16:44:07.621Z,99.50
2022-12-04T16:49:07.839Z,89.90
2022-12-04T16:54:07.494Z,93.80
2022-12-04T16:59:11.689Z,90.30
2022-12-04T17:04:07.453Z,88.40
2022-12-04T17:09:07.299Z,94.19
2022-12-04T17:14:07.300Z,87.00
2022-12-04T17:19:07.172Z,92.69
2022-12-04T17:24:07.119Z,102.19
2022-12-04T17:29:07.054Z,110.00
2022-12-04T17:34:07.007Z,94.40
2022-12-04T17:39:06.931Z,90.59
2022-12-04T17:44:06.871Z,89.59
2022-12-04T17:49:07.550Z,82.19
2022-12-04T17:54:06.742Z,87.30
2022-12-04T17:59:06.683Z,92.40
2022-12-04T18:04:06.618Z,84.19
2022-12-04T18:09:06.560Z,82.40
2022-12-04T18:14:11.668Z,86.09
2022-12-04T18:19:06.434Z,80.69
2022-12-04T18:24:06.413Z,91.90
2022-12-04T18:29:06.294Z,92.40
2022-12-04T18:34:06.238Z,94.90
2022-12-04T18:39:06.167Z,87.19
2022-12-04T18:44:06.110Z,91.59
2022-12-04T18:49:06.045Z,72.59
2022-12-04T18:54:05.986Z,86.30
2022-12-04T18:59:05.915Z,96.59
2022-12-04T19:04:05.921Z,98.50
2022-12-04T19:09:05.792Z,91.19
2022-12-04T19:14:14.819Z,78.00
2022-12-04T19:19:06.689Z,101.09
2022-12-04T19:24:05.606Z,75.69
2022-12-04T19:29:05.543Z,79.40
2022-12-04T19:34:05.530Z,96.80
2022-12-04T19:39:05.410Z,90.40
2022-12-04T19:44:39.685Z,92.59
2022-12-04T19:49:06.313Z,85.40
2022-12-04T19:54:05.290Z,85.30
2022-12-04T19:59:05.178Z,84.19
2022-12-04T20:04:05.111Z,93.90
2022-12-04T20:09:05.040Z,105.90
2022-12-04T20:14:04.978Z,93.09
2022-12-04T20:19:04.905Z,97.00
2022-12-04T20:24:04.857Z,104.19
2022-12-04T20:29:04.813Z,95.69
2022-12-04T20:34:04.728Z,98.40
2022-12-04T20:39:04.655Z,116.00
2022-12-04T20:44:04.616Z,107.50
2022-12-04T20:49:04.529Z,118.30
2022-12-04T20:54:04.502Z,111.80
2022-12-04T20:59:04.400Z,104.09
2022-12-04T21:04:04.447Z,101.19
2022-12-04T21:09:04.274Z,101.90
2022-12-04T21:14:04.228Z,100.40
2022-12-04T21:19:04.148Z,102.00
2022-12-04T21:24:04.102Z,104.80
2022-12-04T21:29:04.026Z,108.50
2022-12-04T21:34:03.970Z,101.00
2022-12-04T21:39:03.904Z,105.19
2022-12-04T21:44:03.843Z,113.09
2022-12-04T21:49:03.779Z,104.90
2022-12-04T21:54:03.718Z,105.69
2022-12-04T21:59:03.657Z,104.00
2022-12-04T22:04:03.594Z,96.50
2022-12-04T22:09:03.553Z,93.19
2022-12-04T22:14:03.454Z,110.80
2022-12-04T22:19:03.406Z,102.40
2022-12-04T22:24:03.327Z,100.80
2022-12-04T22:29:20.836Z,105.19
2022-12-04T22:34:04.231Z,108.50
2022-12-04T22:39:09.882Z,109.59
2022-12-04T22:44:03.079Z,95.50
2022-12-04T22:49:03.019Z,102.40
2022-12-04T22:54:02.961Z,96.50
2022-12-04T22:59:02.894Z,100.80
2022-12-04T23:04:02.833Z,93.30
2022-12-04T23:09:02.773Z,93.19
2022-12-04T23:14:02.707Z,103.40
2022-12-04T23:19:02.636Z,111.19
2022-12-04T23:24:02.576Z,86.59
2022-12-04T23:29:02.512Z,97.00
2022-12-04T23:34:02.442Z,85.90
2022-12-04T23:39:02.384Z,89.50
2022-12-04T23:44:02.315Z,95.59
2022-12-04T23:49:02.257Z,88.69
2022-12-04T23:54:02.237Z,84.50
2022-12-04T23:59:02.184Z,97.69
